LKKV

Karlovy Vary International Airport

Karlovy Vary, Czech Republic
METAR LKKV 230000Z 04006KT CAVOK 14/08 Q1016
Observed Flight Rules
May-23 @ 00:00 UTC (59 minutes ago) Visual Flight Rules
Wind Visibility Clouds
40° at 6 knots 10,000+ meters
  • Clear skies
Temperatures Readings
Current 14°C / 57°F
Dewpoint 8°C / 46°F
Humidity 67%
Altimeter 30" Hg
Pressure 1016 hPa
Elevation 604
METAR LKKV 230000Z 04006KT CAVOK 14/08 Q1016
Observed Flight Rules
May-23 @ 00:00 UTC
(59 minutes ago)
VFR
Wind Visibility
40° at 6 knots 10,000+ meters
Clouds
  • Clear skies
Temperature Dewpoint
14°C / 57°F 8°C / 46°F
Humidity Altimeter Pressure
67% 30" Hg 1016 hPa